createdAt,value
2022-09-12T00:01:15.956Z,3.30
2022-09-12T00:03:42.588Z,3.50
2022-09-12T00:06:22.809Z,3.10
2022-09-12T00:08:49.663Z,2.97
2022-09-12T00:11:15.945Z,3.00
2022-09-12T00:13:42.830Z,3.00
2022-09-12T00:16:15.333Z,3.30
2022-09-12T00:18:41.599Z,2.80
2022-09-12T00:21:07.883Z,3.17
2022-09-12T00:23:34.108Z,3.37
2022-09-12T00:26:00.324Z,2.97
2022-09-12T00:28:27.037Z,2.97
2022-09-12T00:30:53.342Z,3.00
2022-09-12T00:33:19.616Z,3.40
2022-09-12T00:35:46.911Z,3.07
2022-09-12T00:38:13.745Z,3.10
2022-09-12T00:40:40.151Z,3.13
2022-09-12T00:43:06.426Z,3.43
2022-09-12T00:45:32.739Z,3.37
2022-09-12T00:48:02.279Z,2.93
2022-09-12T00:50:29.403Z,2.93
2022-09-12T00:52:59.937Z,3.27
2022-09-12T00:55:28.528Z,3.40
2022-09-12T00:57:59.251Z,3.00
2022-09-12T01:00:26.615Z,3.07
2022-09-12T01:02:56.936Z,3.10
2022-09-12T01:05:23.739Z,2.97
2022-09-12T01:07:51.719Z,3.00
2022-09-12T01:10:19.384Z,3.20
2022-09-12T01:12:46.232Z,3.13
2022-09-12T01:15:12.530Z,3.07
2022-09-12T01:17:44.379Z,2.90
2022-09-12T01:20:21.920Z,3.20
2022-09-12T01:22:48.109Z,2.83
2022-09-12T01:25:33.889Z,3.37
2022-09-12T01:28:19.890Z,3.50
2022-09-12T01:30:52.160Z,3.27
2022-09-12T01:33:21.404Z,3.00
2022-09-12T01:36:04.151Z,2.87
2022-09-12T01:38:43.263Z,3.07
2022-09-12T01:41:12.720Z,3.40
2022-09-12T01:43:53.638Z,3.43
2022-09-12T01:46:22.892Z,3.40
2022-09-12T01:48:57.311Z,3.77
2022-09-12T01:51:31.005Z,3.50
2022-09-12T01:54:05.065Z,3.07
2022-09-12T01:56:33.706Z,3.30
2022-09-12T01:59:05.775Z,3.20
2022-09-12T02:01:33.992Z,3.37
2022-09-12T02:04:12.568Z,3.47
2022-09-12T02:06:44.250Z,3.47
2022-09-12T02:09:13.279Z,3.30
2022-09-12T02:11:41.552Z,3.30
2022-09-12T02:14:16.464Z,3.37
2022-09-12T02:16:47.860Z,3.17
2022-09-12T02:19:24.611Z,3.70
2022-09-12T02:21:53.286Z,3.50
2022-09-12T02:24:21.057Z,3.37
2022-09-12T02:26:49.434Z,3.43
2022-09-12T02:32:11.508Z,3.67
2022-09-12T02:34:44.288Z,2.97
2022-09-12T02:37:25.852Z,3.47
2022-09-12T02:39:55.391Z,3.63
2022-09-12T02:42:22.481Z,3.60
2022-09-12T02:44:49.202Z,3.97
2022-09-12T02:47:20.782Z,3.50
2022-09-12T02:49:47.312Z,3.70
2022-09-12T02:52:13.524Z,3.77
2022-09-12T02:54:40.110Z,3.90
2022-09-12T02:57:16.319Z,3.57
2022-09-12T02:59:44.317Z,3.60
2022-09-12T03:02:29.073Z,3.70
2022-09-12T03:05:14.476Z,3.53
2022-09-12T03:07:57.079Z,3.33
2022-09-12T03:10:38.510Z,3.70
2022-09-12T03:13:14.952Z,3.60
2022-09-12T03:16:00.805Z,3.47
2022-09-12T03:18:31.929Z,3.50
2022-09-12T03:21:09.594Z,3.33
2022-09-12T03:23:43.478Z,3.17
2022-09-12T03:26:12.972Z,3.27
2022-09-12T03:28:40.378Z,3.30
2022-09-12T03:31:17.128Z,3.30
2022-09-12T03:33:43.476Z,3.47
2022-09-12T03:36:17.249Z,3.20
2022-09-12T03:38:43.520Z,3.30
2022-09-12T03:41:09.772Z,3.80
2022-09-12T03:43:36.080Z,3.37
2022-09-12T03:46:02.583Z,3.47
2022-09-12T03:48:28.815Z,3.57
2022-09-12T03:50:55.081Z,3.17
2022-09-12T03:53:21.298Z,3.20
2022-09-12T03:55:47.539Z,3.53
2022-09-12T03:58:13.751Z,3.33
2022-09-12T04:00:40.915Z,3.40
2022-09-12T04:03:07.139Z,3.70
2022-09-12T04:05:33.392Z,3.27
2022-09-12T04:07:59.625Z,3.67
2022-09-12T04:10:25.876Z,3.60
2022-09-12T04:12:52.104Z,3.53
2022-09-12T04:15:18.631Z,3.80
2022-09-12T04:17:44.902Z,3.80
2022-09-12T04:20:11.144Z,3.53
2022-09-12T04:22:37.364Z,3.90
2022-09-12T04:25:04.126Z,3.70
2022-09-12T04:27:30.911Z,4.00
2022-09-12T04:29:57.933Z,3.80
2022-09-12T04:32:24.214Z,4.07
2022-09-12T04:34:52.308Z,3.80
2022-09-12T04:37:18.540Z,4.17
2022-09-12T04:39:45.048Z,4.00
2022-09-12T04:42:11.322Z,4.27
2022-09-12T04:44:37.633Z,3.70
2022-09-12T04:47:03.930Z,4.30
2022-09-12T04:49:30.220Z,4.23
2022-09-12T04:51:56.464Z,4.50
2022-09-12T04:54:22.827Z,4.37
2022-09-12T04:56:50.135Z,3.97
2022-09-12T04:59:20.429Z,4.33
2022-09-12T05:01:46.647Z,4.40
2022-09-12T05:04:13.263Z,4.40
2022-09-12T05:06:40.263Z,4.70
2022-09-12T05:09:07.360Z,4.50
2022-09-12T05:12:02.687Z,4.27
2022-09-12T05:14:24.302Z,4.87
2022-09-12T05:16:50.612Z,4.90
2022-09-12T05:19:17.278Z,5.10
2022-09-12T05:21:43.553Z,4.60
2022-09-12T05:24:10.510Z,4.77
2022-09-12T05:26:37.636Z,4.70
2022-09-12T05:29:04.107Z,5.23
2022-09-12T05:31:30.306Z,5.10
2022-09-12T05:33:57.226Z,4.63
2022-09-12T05:36:27.868Z,5.00
2022-09-12T05:38:54.146Z,5.07
2022-09-12T05:41:24.857Z,5.33
2022-09-12T05:43:52.635Z,5.23
2022-09-12T05:46:19.793Z,5.63
2022-09-12T05:48:47.519Z,5.53
2022-09-12T05:51:17.448Z,5.27
2022-09-12T05:53:43.675Z,5.13
2022-09-12T05:56:11.006Z,5.50
2022-09-12T05:58:38.472Z,5.93
2022-09-12T06:01:07.405Z,6.00
2022-09-12T06:03:39.702Z,5.90
2022-09-12T06:06:06.344Z,5.67
2022-09-12T06:08:33.211Z,5.70
2022-09-12T06:11:03.636Z,6.00
2022-09-12T06:13:34.150Z,5.83
2022-09-12T06:16:04.120Z,5.97
2022-09-12T06:18:31.863Z,5.83
2022-09-12T06:21:01.695Z,5.87
2022-09-12T06:23:27.905Z,6.03
2022-09-12T06:25:55.106Z,5.63
2022-09-12T06:28:21.336Z,6.00
2022-09-12T06:30:48.764Z,5.20
2022-09-12T06:33:15.684Z,6.00
2022-09-12T06:35:42.063Z,5.63
2022-09-12T06:38:09.472Z,5.50
2022-09-12T06:40:40.948Z,5.67
2022-09-12T06:43:07.160Z,5.07
2022-09-12T06:45:33.430Z,5.40
2022-09-12T06:48:00.083Z,5.53
2022-09-12T06:50:26.870Z,5.27
2022-09-12T06:52:53.908Z,5.30
2022-09-12T06:55:23.494Z,4.73
2022-09-12T06:57:52.231Z,5.10
2022-09-12T07:00:18.536Z,5.03
2022-09-12T07:02:44.868Z,4.30
2022-09-12T07:05:11.389Z,4.43
2022-09-12T07:07:38.080Z,4.43
2022-09-12T07:10:04.572Z,4.80
2022-09-12T07:12:30.815Z,4.10
2022-09-12T07:14:57.088Z,4.18
2022-09-12T07:17:23.363Z,3.85
2022-09-12T07:19:49.608Z,4.00
2022-09-12T07:22:15.812Z,3.58
2022-09-12T07:24:42.018Z,4.07
2022-09-12T07:27:08.726Z,3.20
2022-09-12T07:29:37.764Z,3.10
2022-09-12T07:32:05.541Z,3.30
2022-09-12T07:34:31.879Z,3.25
2022-09-12T07:36:58.627Z,3.35
2022-09-12T07:39:24.896Z,3.20
2022-09-12T07:41:51.337Z,3.33
2022-09-12T07:44:17.613Z,3.10
2022-09-12T07:46:43.879Z,3.33
2022-09-12T07:49:12.062Z,3.00
2022-09-12T07:51:38.289Z,2.72
2022-09-12T07:54:07.906Z,2.30
2022-09-12T07:56:38.727Z,2.42
2022-09-12T07:59:05.511Z,2.70
2022-09-12T08:01:31.815Z,2.50
2022-09-12T08:03:58.872Z,2.78
2022-09-12T08:06:25.883Z,3.05
2022-09-12T08:08:52.963Z,2.60
2022-09-12T08:11:20.266Z,2.40
2022-09-12T08:13:49.584Z,2.25
2022-09-12T08:16:20.925Z,2.22
2022-09-12T08:18:47.547Z,2.20
2022-09-12T08:21:16.498Z,2.30
2022-09-12T08:23:43.481Z,2.30
2022-09-12T08:26:10.263Z,2.17
2022-09-12T08:28:36.981Z,2.40
2022-09-12T08:31:13.341Z,2.20
2022-09-12T08:33:39.895Z,2.00
2022-09-12T08:36:07.125Z,2.10
2022-09-12T08:38:34.392Z,2.15
2022-09-12T08:41:07.055Z,1.60
2022-09-12T08:43:43.258Z,1.55
2022-09-12T08:46:13.881Z,1.50
2022-09-12T08:48:41.007Z,1.60
2022-09-12T08:51:11.035Z,1.83
2022-09-12T08:53:37.524Z,1.70
2022-09-12T08:56:05.462Z,1.40
2022-09-12T08:58:35.399Z,1.40
2022-09-12T09:01:13.914Z,1.33
2022-09-12T09:03:56.466Z,1.40
2022-09-12T09:06:32.426Z,1.30
2022-09-12T09:09:05.898Z,1.07
2022-09-12T09:11:40.382Z,1.10
2022-09-12T09:14:40.383Z,1.40
2022-09-12T09:17:14.697Z,1.08
2022-09-12T09:19:48.830Z,1.30
2022-09-12T09:22:29.509Z,1.10
2022-09-12T09:24:59.589Z,0.90
2022-09-12T09:27:40.558Z,1.20
2022-09-12T09:30:17.701Z,1.00
2022-09-12T09:32:44.844Z,1.40
2022-09-12T09:35:26.045Z,1.23
2022-09-12T09:38:00.476Z,1.20
2022-09-12T09:40:52.767Z,1.00
2022-09-12T09:43:22.861Z,1.03
2022-09-12T09:45:52.860Z,1.20
2022-09-12T09:48:20.950Z,1.20
2022-09-12T09:50:48.952Z,1.10
2022-09-12T09:53:23.875Z,1.10
2022-09-12T09:55:51.347Z,1.40
2022-09-12T09:58:32.606Z,1.00
2022-09-12T10:01:03.036Z,1.10
2022-09-12T10:03:33.620Z,1.00
2022-09-12T10:06:07.133Z,1.10
2022-09-12T10:08:37.263Z,1.07
2022-09-12T10:11:03.509Z,0.93
2022-09-12T10:13:54.467Z,0.90
2022-09-12T10:16:22.619Z,0.90
2022-09-12T10:18:50.241Z,1.20
2022-09-12T10:21:29.501Z,1.20
2022-09-12T10:24:14.143Z,1.20
2022-09-12T10:26:40.522Z,1.30
2022-09-12T10:29:11.779Z,1.30
2022-09-12T10:31:49.828Z,1.00
2022-09-12T10:34:21.254Z,3.43
2022-09-12T10:36:47.548Z,1.30
2022-09-12T10:39:18.608Z,1.00
2022-09-12T10:41:45.121Z,1.00
2022-09-12T10:44:15.976Z,0.90
2022-09-12T10:46:42.185Z,1.13
2022-09-12T10:49:21.295Z,0.80
2022-09-12T10:51:48.805Z,1.10
2022-09-12T10:54:17.949Z,1.00
2022-09-12T10:57:03.372Z,1.10
2022-09-12T10:59:53.057Z,0.97
2022-09-12T11:02:29.960Z,0.97
2022-09-12T11:05:14.048Z,1.10
2022-09-12T11:07:46.006Z,0.90
2022-09-12T11:10:21.252Z,1.00
2022-09-12T11:13:06.270Z,0.90
2022-09-12T11:15:52.065Z,0.93
2022-09-12T11:18:21.088Z,0.90
2022-09-12T11:20:53.732Z,1.17
2022-09-12T11:23:49.277Z,1.00
2022-09-12T11:26:29.779Z,1.00
2022-09-12T11:29:19.611Z,0.80
2022-09-12T11:31:57.146Z,0.90
2022-09-12T11:34:40.344Z,1.00
2022-09-12T11:37:16.255Z,1.10
2022-09-12T11:39:46.282Z,0.90
2022-09-12T11:42:16.833Z,1.00
2022-09-12T11:44:46.156Z,0.93
2022-09-12T11:47:13.499Z,0.80
2022-09-12T11:49:45.954Z,1.00
2022-09-12T11:52:16.710Z,0.77
2022-09-12T11:54:49.037Z,1.20
2022-09-12T11:57:23.342Z,0.90
2022-09-12T11:59:54.026Z,0.93
2022-09-12T12:02:30.643Z,0.70
2022-09-12T12:05:04.461Z,0.90
2022-09-12T12:07:45.391Z,0.80
2022-09-12T12:10:22.276Z,0.90
2022-09-12T12:12:49.277Z,0.80
2022-09-12T12:15:16.406Z,0.70
2022-09-12T12:17:42.680Z,0.70
2022-09-12T12:20:16.247Z,0.70
2022-09-12T12:22:52.971Z,0.80
2022-09-12T12:25:21.926Z,0.80
2022-09-12T12:27:59.869Z,0.80
2022-09-12T12:30:28.854Z,1.00
2022-09-12T12:33:01.374Z,0.83
2022-09-12T12:35:33.690Z,0.77
2022-09-12T12:38:00.319Z,1.03
2022-09-12T12:40:27.330Z,0.90
2022-09-12T12:42:58.733Z,0.90
2022-09-12T12:45:28.113Z,1.13
2022-09-12T12:47:56.384Z,0.90
2022-09-12T12:50:26.122Z,0.80
2022-09-12T12:52:55.010Z,0.90
2022-09-12T12:55:26.221Z,0.90
2022-09-12T12:57:56.593Z,0.70
2022-09-12T13:00:26.329Z,0.90
2022-09-12T13:02:57.056Z,1.00
2022-09-12T13:05:25.039Z,1.00
2022-09-12T13:07:55.639Z,1.03
2022-09-12T13:10:23.461Z,1.00
2022-09-12T13:12:50.563Z,1.17
2022-09-12T13:15:46.422Z,0.97
2022-09-12T13:18:19.586Z,1.20
2022-09-12T13:20:54.416Z,1.00
2022-09-12T13:23:25.537Z,1.10
2022-09-12T13:25:52.939Z,1.50
2022-09-12T13:31:37.760Z,0.77
2022-09-12T13:34:05.484Z,0.87
2022-09-12T13:36:31.673Z,1.20
2022-09-12T13:39:15.454Z,1.03
2022-09-12T13:42:00.361Z,0.90
2022-09-12T13:44:27.106Z,1.37
2022-09-12T13:46:53.876Z,0.90
2022-09-12T13:49:39.633Z,0.90
2022-09-12T13:52:07.163Z,1.10
2022-09-12T13:54:34.050Z,1.10
2022-09-12T13:57:00.267Z,1.03
2022-09-12T13:59:26.575Z,1.00
2022-09-12T14:01:52.866Z,1.00
2022-09-12T14:04:39.307Z,0.93
2022-09-12T14:07:14.726Z,1.10
2022-09-12T14:09:42.381Z,1.10
2022-09-12T14:12:22.148Z,1.30
2022-09-12T14:14:49.959Z,1.00
2022-09-12T14:17:24.642Z,1.10
2022-09-12T14:19:52.728Z,1.00
2022-09-12T14:22:19.031Z,1.00
2022-09-12T14:24:50.082Z,1.10
2022-09-12T14:27:17.924Z,0.93
2022-09-12T14:29:44.515Z,1.00
2022-09-12T14:32:20.621Z,1.10
2022-09-12T14:35:05.715Z,1.10
2022-09-12T14:37:32.355Z,0.90
2022-09-12T14:39:58.701Z,1.03
2022-09-12T14:42:27.394Z,1.20
2022-09-12T14:44:58.653Z,1.00
2022-09-12T14:47:26.399Z,1.07
2022-09-12T14:49:52.760Z,1.30
2022-09-12T14:52:26.313Z,1.00
2022-09-12T14:54:56.770Z,1.30
2022-09-12T14:57:39.766Z,1.30
2022-09-12T15:00:20.453Z,1.10
2022-09-12T15:02:47.744Z,1.20
2022-09-12T15:05:26.662Z,1.00
2022-09-12T15:07:54.382Z,1.00
2022-09-12T15:10:24.090Z,1.10
2022-09-12T15:12:50.389Z,1.23
2022-09-12T15:15:18.251Z,1.00
2022-09-12T15:17:44.476Z,1.17
2022-09-12T15:20:10.955Z,1.40
2022-09-12T15:22:38.083Z,1.00
2022-09-12T15:25:04.919Z,1.10
2022-09-12T15:27:31.255Z,1.23
2022-09-12T15:29:57.871Z,1.20
2022-09-12T15:32:30.039Z,1.10
2022-09-12T15:34:56.321Z,1.17
2022-09-12T15:37:23.599Z,1.43
2022-09-12T15:39:50.442Z,1.07
2022-09-12T15:42:17.436Z,1.03
2022-09-12T15:44:43.931Z,1.30
2022-09-12T15:47:11.747Z,1.33
2022-09-12T15:49:38.032Z,1.20
2022-09-12T15:52:04.274Z,1.30
2022-09-12T15:54:30.494Z,1.30
2022-09-12T15:56:56.725Z,1.20
2022-09-12T15:59:23.006Z,1.20
2022-09-12T16:01:49.319Z,1.20
2022-09-12T16:04:20.570Z,1.13
2022-09-12T16:06:46.834Z,1.60
2022-09-12T16:09:16.643Z,1.30
2022-09-12T16:11:43.127Z,1.30
2022-09-12T16:14:10.201Z,1.40
2022-09-12T16:16:36.416Z,1.30
2022-09-12T16:19:03.573Z,1.50
2022-09-12T16:21:29.793Z,1.63
2022-09-12T16:23:56.013Z,1.30
2022-09-12T16:26:22.250Z,1.50
2022-09-12T16:28:54.088Z,1.40
2022-09-12T16:31:21.981Z,1.57
2022-09-12T16:33:48.665Z,1.40
2022-09-12T16:36:15.938Z,1.50
2022-09-12T16:38:43.085Z,1.13
2022-09-12T16:41:09.341Z,1.37
2022-09-12T16:43:35.789Z,1.63
2022-09-12T16:46:04.696Z,1.50
2022-09-12T16:48:31.035Z,2.10
2022-09-12T16:50:57.840Z,2.03
2022-09-12T16:53:24.367Z,1.53
2022-09-12T16:55:51.032Z,1.47
2022-09-12T16:58:17.291Z,1.43
2022-09-12T17:00:43.495Z,1.60
2022-09-12T17:03:09.885Z,1.50
2022-09-12T17:05:36.150Z,1.60
2022-09-12T17:08:05.487Z,1.50
2022-09-12T17:10:33.082Z,1.50
2022-09-12T17:12:59.475Z,1.70
2022-09-12T17:15:25.978Z,1.70
2022-09-12T17:17:52.218Z,1.63
2022-09-12T17:20:18.448Z,1.60
2022-09-12T17:22:44.742Z,1.57
2022-09-12T17:25:11.034Z,1.70
2022-09-12T17:27:37.318Z,2.00
2022-09-12T17:30:04.285Z,1.90
2022-09-12T17:32:30.660Z,2.00
2022-09-12T17:34:57.163Z,2.10
2022-09-12T17:37:23.407Z,2.23
2022-09-12T17:39:49.880Z,2.10
2022-09-12T17:42:16.123Z,3.37
2022-09-12T17:44:42.399Z,2.90
2022-09-12T17:47:08.621Z,3.20
2022-09-12T17:49:36.641Z,3.23
2022-09-12T17:52:05.042Z,3.23
2022-09-12T17:54:31.326Z,3.00
2022-09-12T17:56:57.566Z,2.77
2022-09-12T17:59:24.783Z,2.70
2022-09-12T18:02:09.817Z,2.67
2022-09-12T18:04:36.383Z,2.40
2022-09-12T18:07:02.672Z,2.30
2022-09-12T18:09:29.068Z,2.10
2022-09-12T18:11:55.347Z,2.10
2022-09-12T18:14:21.922Z,2.00
2022-09-12T18:16:48.418Z,2.40
2022-09-12T18:19:14.715Z,2.70
2022-09-12T18:21:40.962Z,2.77
2022-09-12T18:24:07.616Z,2.33
2022-09-12T18:26:34.476Z,2.20
2022-09-12T18:29:00.790Z,2.50
2022-09-12T18:31:28.886Z,2.63
2022-09-12T18:33:55.911Z,2.83
2022-09-12T18:36:22.444Z,2.90
2022-09-12T18:38:48.868Z,2.80
2022-09-12T18:41:16.427Z,3.90
2022-09-12T18:43:43.364Z,3.20
2022-09-12T18:46:11.691Z,3.20
2022-09-12T18:48:38.279Z,3.60
2022-09-12T18:51:05.888Z,3.33
2022-09-12T18:53:32.893Z,3.57
2022-09-12T18:56:03.719Z,2.87
2022-09-12T18:58:30.921Z,3.00
2022-09-12T19:00:58.529Z,3.27
2022-09-12T19:03:25.097Z,3.00
2022-09-12T19:05:51.388Z,3.27
2022-09-12T19:08:17.690Z,3.27
2022-09-12T19:10:44.357Z,3.37
2022-09-12T19:13:10.594Z,3.07
2022-09-12T19:15:39.345Z,3.10
2022-09-12T19:18:05.626Z,3.50
2022-09-12T19:20:35.035Z,3.20
2022-09-12T19:23:01.261Z,3.20
2022-09-12T19:25:27.470Z,3.40
2022-09-12T19:27:53.710Z,3.73
2022-09-12T19:30:19.931Z,3.80
2022-09-12T19:32:46.240Z,3.63
2022-09-12T19:35:14.187Z,3.80
2022-09-12T19:37:40.396Z,4.03
2022-09-12T19:40:07.728Z,3.97
2022-09-12T19:42:34.063Z,3.60
2022-09-12T19:45:00.269Z,4.10
2022-09-12T19:47:26.534Z,4.20
2022-09-12T19:49:52.754Z,4.40
2022-09-12T19:52:18.995Z,4.03
2022-09-12T19:54:45.500Z,3.97
2022-09-12T19:57:11.828Z,3.70
2022-09-12T19:59:38.036Z,3.97
2022-09-12T20:02:04.417Z,3.67
2022-09-12T20:04:31.563Z,4.00
2022-09-12T20:06:57.790Z,3.73
2022-09-12T20:09:24.009Z,3.90
2022-09-12T20:11:50.266Z,3.80
2022-09-12T20:14:16.540Z,4.00
2022-09-12T20:16:43.213Z,3.80
2022-09-12T20:19:09.440Z,3.83
2022-09-12T20:21:36.651Z,3.90
2022-09-12T20:24:04.504Z,3.90
2022-09-12T20:26:31.093Z,3.50
2022-09-12T20:28:57.307Z,3.60
2022-09-12T20:31:23.565Z,3.60
2022-09-12T20:33:51.754Z,3.60
2022-09-12T20:36:19.364Z,3.50
2022-09-12T20:38:52.839Z,3.77
2022-09-12T20:41:19.773Z,3.90
2022-09-12T20:43:49.208Z,3.93
2022-09-12T20:46:18.636Z,3.33
2022-09-12T20:48:48.083Z,3.57
2022-09-12T20:51:14.357Z,3.70
2022-09-12T20:53:40.600Z,3.37
2022-09-12T20:56:06.924Z,3.73
2022-09-12T20:58:33.603Z,3.60
2022-09-12T21:01:00.494Z,3.87
2022-09-12T21:03:29.855Z,3.47
2022-09-12T21:05:56.811Z,3.90
2022-09-12T21:08:23.018Z,3.60
2022-09-12T21:10:49.283Z,3.60
2022-09-12T21:13:15.513Z,3.50
2022-09-12T21:15:42.250Z,3.17
2022-09-12T21:18:08.546Z,3.43
2022-09-12T21:20:35.690Z,3.10
2022-09-12T21:23:01.921Z,3.50
2022-09-12T21:25:29.100Z,3.50
2022-09-12T21:27:55.370Z,2.87
2022-09-12T21:30:22.152Z,3.37
2022-09-12T21:32:48.509Z,3.30
2022-09-12T21:35:14.781Z,3.07
2022-09-12T21:37:40.999Z,2.83
2022-09-12T21:40:07.391Z,3.10
2022-09-12T21:42:33.664Z,3.33
2022-09-12T21:44:59.873Z,2.93
2022-09-12T21:47:26.096Z,2.47
2022-09-12T21:49:52.353Z,3.17
2022-09-12T21:52:18.567Z,2.80
2022-09-12T21:54:44.845Z,3.10
2022-09-12T21:57:11.084Z,2.60
2022-09-12T21:59:37.296Z,3.00
2022-09-12T22:02:03.841Z,2.83
2022-09-12T22:04:32.852Z,2.73
2022-09-12T22:06:59.062Z,2.87
2022-09-12T22:09:25.628Z,3.10
2022-09-12T22:11:51.921Z,2.40
2022-09-12T22:14:18.171Z,3.00
2022-09-12T22:16:44.399Z,3.37
2022-09-12T22:19:10.625Z,3.23
2022-09-12T22:21:56.825Z,3.10
2022-09-12T22:24:29.378Z,2.90
2022-09-12T22:26:56.878Z,3.30
2022-09-12T22:29:23.482Z,2.73
2022-09-12T22:31:49.703Z,3.00
2022-09-12T22:34:16.420Z,3.10
2022-09-12T22:36:42.797Z,2.67
2022-09-12T22:39:09.058Z,3.23
2022-09-12T22:41:35.282Z,2.60
2022-09-12T22:44:01.608Z,2.90
2022-09-12T22:46:27.906Z,2.90
2022-09-12T22:48:55.668Z,3.00
2022-09-12T22:51:21.939Z,2.67
2022-09-12T22:53:48.323Z,2.93
2022-09-12T22:56:14.680Z,2.50
2022-09-12T22:58:41.917Z,2.70
2022-09-12T23:01:08.496Z,2.80
2022-09-12T23:03:35.341Z,2.80
2022-09-12T23:06:02.658Z,2.87
2022-09-12T23:08:29.715Z,2.70
2022-09-12T23:11:03.161Z,3.03
2022-09-12T23:13:29.492Z,2.80
2022-09-12T23:15:59.507Z,3.10
2022-09-12T23:18:25.916Z,3.07
2022-09-12T23:21:01.811Z,2.73
2022-09-12T23:23:28.483Z,2.73
2022-09-12T23:26:13.576Z,2.83
2022-09-12T23:28:40.371Z,2.90
2022-09-12T23:31:08.615Z,2.90
2022-09-12T23:33:35.405Z,3.33
2022-09-12T23:36:02.790Z,3.07
2022-09-12T23:38:32.333Z,3.10
2022-09-12T23:40:58.654Z,3.10
2022-09-12T23:43:25.029Z,3.00
2022-09-12T23:45:51.544Z,3.27
2022-09-12T23:48:18.448Z,3.00
2022-09-12T23:50:45.599Z,3.43
2022-09-12T23:53:12.696Z,3.50
2022-09-12T23:55:39.282Z,3.30
2022-09-12T23:58:05.537Z,3.07
